Terminal Aerodrome Forecast
Issued by NWS

Home | Current Version | Previous Version | Text Only | Print | Product List | Glossary On
Versions: 1 2 3 4 5 6 7 8 9 10 11 12 13 14 15 16 17 18
000
FTUS45 KBOU 231140
TAFAPA
TAF
KAPA 231140Z 2312/2412 25007KT P6SM FEW120 SCT220
     FM231500 VRB05KT P6SM FEW140 SCT220
     FM231800 13007KT P6SM FEW110 SCT220
     FM232200 15009KT P6SM SCT100 BKN150
     FM240200 17011KT P6SM SCT100 SCT170
     FM240500 20012KT P6SM FEW120 SCT200=

USA.gov is the U.S. government's official web portal to all federal, state and local government web resources and services.